Time;durP1;ratioP1;P1;durP2;ratioP2;P2;SDS_P1;SDS_P2;PMS_P1;PMS_P2;Temp;Humidity;BMP_temperature;BMP_pressure;BME280_temperature;BME280_humidity;BME280_pressure;Samples;Min_cycle;Max_cycle;Signal;HPM_P1;HPM_P2
2023/12/21 00:02:21;;;;;;;1.58;1.08;;;4.90;99.90;;;;;;5087475;28;20225;-71
2023/12/21 00:04:50;;;;;;;0.60;0.57;;;4.90;99.90;;;;;;5083327;28;20223;-72
2023/12/21 00:07:17;;;;;;;0.50;0.50;;;4.90;99.90;;;;;;5088039;28;20225;-72
2023/12/21 00:09:44;;;;;;;0.80;0.77;;;4.90;99.90;;;;;;5087754;28;20285;-72
2023/12/21 00:12:11;;;;;;;0.50;0.40;;;4.80;99.90;;;;;;5088293;28;20210;-72
2023/12/21 00:14:37;;;;;;;0.75;0.75;;;4.80;99.90;;;;;;5081560;28;20210;-72
2023/12/21 00:17:04;;;;;;;0.50;0.50;;;4.80;99.90;;;;;;5087327;28;20216;-71
2023/12/21 00:19:31;;;;;;;0.88;0.60;;;4.80;99.90;;;;;;5087256;28;20202;-72
2023/12/21 00:21:59;;;;;;;0.60;0.40;;;4.90;99.90;;;;;;5088243;28;20585;-72
2023/12/21 00:24:25;;;;;;;0.40;0.40;;;4.90;99.90;;;;;;5085999;28;20224;-72
2023/12/21 00:26:52;;;;;;;0.53;0.50;;;4.90;99.90;;;;;;5087845;28;20714;-72
2023/12/21 00:29:19;;;;;;;1.52;0.70;;;4.90;99.90;;;;;;5087811;28;20669;-72
2023/12/21 00:31:45;;;;;;;0.52;0.52;;;4.90;99.90;;;;;;5086341;28;20659;-72
2023/12/21 00:34:12;;;;;;;0.50;0.40;;;4.90;99.90;;;;;;5087404;28;20199;-72
2023/12/21 00:36:39;;;;;;;0.50;0.30;;;4.80;99.90;;;;;;5087489;28;20564;-72
2023/12/21 00:39:08;;;;;;;0.50;0.43;;;4.80;99.90;;;;;;5086894;28;20198;-73
2023/12/21 00:41:35;;;;;;;0.60;0.40;;;4.90;99.90;;;;;;5086717;28;20210;-72
2023/12/21 00:44:02;;;;;;;0.40;0.30;;;4.80;99.90;;;;;;5087431;28;20219;-72
2023/12/21 00:46:28;;;;;;;0.40;0.30;;;4.90;99.90;;;;;;5086696;28;20209;-72
2023/12/21 00:48:55;;;;;;;0.40;0.30;;;4.90;99.90;;;;;;5085741;28;20213;-72
2023/12/21 00:51:22;;;;;;;1.38;0.45;;;4.90;99.90;;;;;;5086710;28;20296;-72
2023/12/21 00:53:49;;;;;;;0.30;0.30;;;5.00;99.90;;;;;;5090201;28;20203;-72
2023/12/21 00:56:17;;;;;;;0.30;0.30;;;4.90;99.90;;;;;;5087243;28;20213;-71
2023/12/21 00:58:44;;;;;;;0.50;0.50;;;4.90;99.90;;;;;;5086771;28;20519;-72
2023/12/21 01:01:10;;;;;;;0.85;0.47;;;4.90;99.90;;;;;;5086379;28;20676;-72
2023/12/21 01:03:37;;;;;;;0.40;0.40;;;4.90;99.90;;;;;;5087177;28;20553;-72
2023/12/21 01:06:04;;;;;;;0.40;0.30;;;4.90;99.90;;;;;;5087491;28;20240;-72
2023/12/21 01:08:31;;;;;;;0.30;0.30;;;5.00;99.90;;;;;;5087506;28;20210;-72
2023/12/21 01:10:58;;;;;;;0.50;0.50;;;5.00;99.90;;;;;;5086832;28;20217;-72
2023/12/21 01:13:26;;;;;;;0.40;0.40;;;4.90;99.90;;;;;;5087272;28;20550;-72
2023/12/21 01:15:52;;;;;;;0.40;0.30;;;5.00;99.90;;;;;;5083013;28;20213;-72
2023/12/21 01:18:19;;;;;;;0.50;0.30;;;5.00;99.90;;;;;;5087341;28;20198;-72
2023/12/21 01:20:46;;;;;;;0.50;0.30;;;5.00;99.90;;;;;;5087032;28;20563;-72
2023/12/21 01:23:13;;;;;;;1.20;0.35;;;5.00;99.90;;;;;;5087230;28;20675;-72
2023/12/21 01:25:39;;;;;;;1.10;0.30;;;4.90;99.90;;;;;;5087122;28;20605;-72
2023/12/21 01:28:07;;;;;;;0.40;0.28;;;5.00;99.90;;;;;;5087110;28;20621;-72
2023/12/21 01:30:35;;;;;;;0.60;0.47;;;5.00;99.90;;;;;;5086849;28;20215;-72
2023/12/21 01:33:02;;;;;;;0.40;0.40;;;5.00;99.90;;;;;;5087033;28;20485;-72
2023/12/21 01:35:28;;;;;;;0.30;0.22;;;5.00;99.90;;;;;;5087109;28;20565;-72
2023/12/21 01:37:55;;;;;;;0.30;0.20;;;5.00;99.90;;;;;;5087002;28;20209;-72
2023/12/21 01:40:24;;;;;;;0.60;0.40;;;5.00;99.90;;;;;;5085131;28;20203;-72
2023/12/21 01:42:50;;;;;;;0.30;0.20;;;5.00;99.90;;;;;;5087207;28;20521;-72
2023/12/21 01:45:18;;;;;;;0.60;0.50;;;5.00;99.90;;;;;;5086920;28;20229;-72
2023/12/21 01:47:47;;;;;;;0.55;0.55;;;5.00;99.90;;;;;;5086236;28;20218;-72
2023/12/21 01:50:15;;;;;;;0.30;0.30;;;5.00;99.90;;;;;;5086281;28;20228;-72
2023/12/21 01:52:42;;;;;;;0.40;0.30;;;5.10;99.90;;;;;;5087015;28;20206;-72
2023/12/21 01:55:10;;;;;;;1.20;0.50;;;5.10;99.90;;;;;;5091045;28;20618;-72
2023/12/21 01:57:38;;;;;;;0.68;0.57;;;5.10;99.90;;;;;;5086798;28;20215;-72
2023/12/21 02:00:06;;;;;;;0.30;0.20;;;5.10;99.90;;;;;;5086297;28;20203;-72
2023/12/21 02:02:32;;;;;;;0.40;0.35;;;5.10;99.90;;;;;;5086418;28;20209;-72
2023/12/21 02:05:00;;;;;;;1.63;1.10;;;5.20;99.90;;;;;;5086246;28;20218;-72
2023/12/21 02:07:27;;;;;;;0.50;0.30;;;5.20;99.90;;;;;;5078067;28;20281;-72
2023/12/21 02:09:54;;;;;;;0.30;0.30;;;5.20;99.90;;;;;;5086244;28;20234;-72
2023/12/21 02:12:21;;;;;;;1.25;0.52;;;5.20;99.90;;;;;;5086771;28;20202;-72
2023/12/21 02:14:49;;;;;;;0.40;0.30;;;5.20;99.90;;;;;;5068401;28;20213;-73
2023/12/21 02:17:19;;;;;;;0.40;0.30;;;5.30;99.90;;;;;;5086408;28;20678;-72
2023/12/21 02:19:48;;;;;;;0.30;0.25;;;5.20;99.90;;;;;;5070032;28;20619;-72
2023/12/21 02:22:20;;;;;;;0.40;0.38;;;5.20;99.90;;;;;;5069133;28;20213;-72
2023/12/21 02:24:49;;;;;;;0.47;0.30;;;5.30;99.90;;;;;;5086373;28;20218;-72
2023/12/21 02:27:17;;;;;;;0.40;0.30;;;5.20;99.90;;;;;;5086550;28;20229;-72
2023/12/21 02:29:45;;;;;;;0.40;0.30;;;5.30;99.90;;;;;;5080469;28;20203;-72
2023/12/21 02:32:12;;;;;;;0.40;0.20;;;5.20;99.90;;;;;;5086082;28;20242;-72
2023/12/21 02:34:39;;;;;;;0.50;0.50;;;5.20;99.90;;;;;;5086185;28;20731;-72
2023/12/21 02:37:06;;;;;;;0.30;0.20;;;5.30;99.90;;;;;;5085957;28;20205;-72
2023/12/21 02:39:33;;;;;;;0.50;0.20;;;5.30;99.90;;;;;;5086068;28;20202;-72
2023/12/21 02:42:01;;;;;;;0.65;0.45;;;5.30;99.90;;;;;;5086204;28;20202;-72
2023/12/21 02:44:28;;;;;;;0.30;0.20;;;5.30;99.90;;;;;;5081450;28;20214;-72
2023/12/21 02:46:55;;;;;;;0.50;0.20;;;5.30;99.90;;;;;;5086303;28;20210;-72
2023/12/21 02:49:22;;;;;;;0.60;0.30;;;5.30;99.90;;;;;;5086012;28;20234;-72
2023/12/21 02:51:49;;;;;;;1.10;0.50;;;5.30;99.90;;;;;;5085157;28;20208;-72
2023/12/21 02:54:17;;;;;;;0.30;0.30;;;5.30;99.90;;;;;;5090987;28;20191;-72
2023/12/21 02:56:44;;;;;;;0.30;0.20;;;5.40;99.90;;;;;;5088828;28;20198;-72
2023/12/21 02:59:13;;;;;;;0.40;0.20;;;5.40;99.90;;;;;;5090304;28;20202;-72
2023/12/21 03:01:42;;;;;;;0.30;0.20;;;5.40;99.90;;;;;;5089243;28;20202;-72
2023/12/21 03:04:10;;;;;;;0.30;0.20;;;5.40;99.90;;;;;;5089895;28;20206;-72
2023/12/21 03:06:38;;;;;;;0.30;0.20;;;5.50;99.90;;;;;;5090071;28;20206;-72
2023/12/21 03:09:05;;;;;;;0.30;0.20;;;5.50;99.90;;;;;;5078220;28;20557;-73
2023/12/21 03:11:33;;;;;;;0.50;0.20;;;5.50;99.90;;;;;;5089154;28;20195;-72
2023/12/21 03:14:00;;;;;;;0.40;0.40;;;5.50;99.90;;;;;;5089851;28;20218;-72
2023/12/21 03:16:30;;;;;;;0.30;0.30;;;5.40;99.90;;;;;;5089545;28;20979;-72
2023/12/21 03:18:57;;;;;;;0.55;0.32;;;5.50;99.90;;;;;;5090031;28;20575;-72
2023/12/21 03:21:25;;;;;;;0.30;0.25;;;5.50;99.90;;;;;;5089083;28;20619;-72
2023/12/21 03:23:52;;;;;;;0.50;0.47;;;5.50;99.90;;;;;;5088876;28;20543;-72
2023/12/21 03:26:19;;;;;;;0.40;0.20;;;5.50;99.90;;;;;;5088622;28;20279;-72
2023/12/21 03:28:47;;;;;;;0.30;0.20;;;5.50;99.90;;;;;;5088467;28;20211;-72
2023/12/21 03:31:17;;;;;;;0.55;0.30;;;5.50;99.90;;;;;;5088365;28;20210;-73
2023/12/21 03:33:46;;;;;;;0.75;0.32;;;5.50;99.90;;;;;;5088372;28;20221;-73
2023/12/21 03:36:13;;;;;;;0.40;0.30;;;5.50;99.90;;;;;;5088637;28;20651;-72
2023/12/21 03:38:41;;;;;;;0.50;0.30;;;5.40;99.90;;;;;;5088273;28;20256;-73
2023/12/21 03:41:09;;;;;;;0.30;0.28;;;5.40;99.90;;;;;;5089083;28;20198;-72
2023/12/21 03:43:36;;;;;;;0.30;0.20;;;5.50;99.90;;;;;;5089088;28;20214;-73
2023/12/21 03:46:02;;;;;;;0.50;0.20;;;5.50;99.90;;;;;;5088519;28;20226;-73
2023/12/21 03:48:29;;;;;;;0.30;0.20;;;5.50;99.90;;;;;;5084592;28;20234;-72
2023/12/21 03:50:57;;;;;;;0.30;0.20;;;5.50;99.90;;;;;;5088826;28;20203;-73
2023/12/21 03:53:24;;;;;;;0.47;0.30;;;5.50;99.90;;;;;;5091489;28;20210;-72
2023/12/21 03:55:51;;;;;;;0.50;0.28;;;5.50;99.90;;;;;;5089005;28;20262;-72
2023/12/21 03:58:17;;;;;;;0.30;0.20;;;5.50;99.90;;;;;;5088843;28;20205;-73
2023/12/21 04:00:44;;;;;;;0.30;0.20;;;5.50;99.90;;;;;;5088786;28;20213;-73
2023/12/21 04:03:11;;;;;;;0.30;0.20;;;5.50;99.90;;;;;;5089326;28;20241;-73
2023/12/21 04:05:38;;;;;;;0.30;0.20;;;5.50;99.90;;;;;;5088970;28;20218;-73
2023/12/21 04:08:07;;;;;;;1.02;0.52;;;5.60;99.90;;;;;;5088117;28;20198;-73
2023/12/21 04:10:34;;;;;;;0.40;0.20;;;5.50;99.90;;;;;;5088127;28;20205;-73
2023/12/21 04:13:01;;;;;;;0.75;0.60;;;5.70;99.90;;;;;;5088763;28;20297;-73
2023/12/21 04:15:28;;;;;;;0.35;0.25;;;5.60;99.90;;;;;;5082177;28;20195;-72
2023/12/21 04:17:54;;;;;;;0.40;0.30;;;5.60;99.90;;;;;;5088964;28;20211;-73
2023/12/21 04:20:21;;;;;;;0.40;0.30;;;5.60;99.90;;;;;;5088094;28;20229;-73
2023/12/21 04:22:48;;;;;;;0.30;0.20;;;5.60;99.90;;;;;;5088293;28;20603;-72
2023/12/21 04:25:16;;;;;;;0.30;0.20;;;5.70;99.90;;;;;;5087852;28;20706;-73
2023/12/21 04:27:43;;;;;;;0.50;0.30;;;5.70;99.90;;;;;;5088443;28;20293;-73
2023/12/21 04:30:11;;;;;;;0.30;0.30;;;5.60;99.90;;;;;;5087569;28;20298;-72
2023/12/21 04:32:38;;;;;;;0.30;0.20;;;5.70;99.90;;;;;;5088682;28;20206;-73
2023/12/21 04:35:08;;;;;;;0.50;0.40;;;5.60;99.90;;;;;;5088436;28;20678;-73
2023/12/21 04:37:35;;;;;;;0.40;0.30;;;5.60;99.90;;;;;;5087937;28;20259;-73
2023/12/21 04:40:02;;;;;;;0.30;0.22;;;5.60;99.90;;;;;;5087511;28;20523;-73
2023/12/21 04:42:31;;;;;;;0.35;0.35;;;5.60;99.90;;;;;;5088414;28;20214;-72
2023/12/21 04:44:57;;;;;;;0.40;0.20;;;5.60;99.90;;;;;;5088706;28;20256;-72
2023/12/21 04:47:24;;;;;;;0.30;0.30;;;5.60;99.90;;;;;;5087772;28;20400;-73
2023/12/21 04:49:51;;;;;;;0.40;0.30;;;5.60;99.90;;;;;;5085619;28;20207;-72
2023/12/21 04:52:18;;;;;;;0.40;0.30;;;5.70;99.90;;;;;;5087441;28;20203;-72
2023/12/21 04:54:45;;;;;;;0.98;0.30;;;5.60;99.90;;;;;;5091854;28;20205;-73
2023/12/21 04:57:12;;;;;;;0.73;0.40;;;5.50;99.90;;;;;;5087358;28;20209;-73
2023/12/21 04:59:41;;;;;;;0.30;0.20;;;5.50;99.90;;;;;;5087166;28;20202;-73
2023/12/21 05:02:08;;;;;;;0.40;0.35;;;5.70;99.90;;;;;;5087637;28;20648;-73
2023/12/21 05:04:35;;;;;;;0.43;0.32;;;5.60;99.90;;;;;;5087563;28;20206;-73
2023/12/21 05:07:08;;;;;;;0.30;0.20;;;5.60;99.90;;;;;;5087687;28;20213;-73
2023/12/21 05:09:35;;;;;;;0.38;0.25;;;5.70;99.90;;;;;;5082653;28;20267;-73
2023/12/21 05:12:02;;;;;;;0.50;0.32;;;5.60;99.90;;;;;;5087869;28;20317;-73
2023/12/21 05:14:28;;;;;;;0.93;0.32;;;5.60;99.90;;;;;;5081213;28;20675;-73
2023/12/21 05:16:57;;;;;;;0.70;0.40;;;5.60;99.90;;;;;;5087859;28;20636;-73
2023/12/21 05:19:23;;;;;;;0.30;0.30;;;5.70;99.90;;;;;;5087281;28;20233;-73
2023/12/21 05:21:50;;;;;;;0.40;0.30;;;5.70;99.90;;;;;;5087216;28;20210;-73
2023/12/21 05:24:17;;;;;;;0.30;0.20;;;5.70;99.90;;;;;;5087408;28;20386;-73
2023/12/21 05:26:44;;;;;;;0.40;0.30;;;5.80;99.90;;;;;;5087163;28;20233;-73
2023/12/21 05:29:11;;;;;;;0.30;0.20;;;5.70;99.90;;;;;;5087117;28;20217;-73
2023/12/21 05:31:38;;;;;;;0.30;0.20;;;5.70;99.90;;;;;;5086625;28;20209;-73
2023/12/21 05:34:06;;;;;;;0.40;0.20;;;5.70;99.90;;;;;;5087026;28;20203;-73
2023/12/21 05:36:33;;;;;;;0.68;0.30;;;5.70;99.90;;;;;;5086863;28;20206;-73
2023/12/21 05:39:00;;;;;;;0.40;0.20;;;5.60;99.90;;;;;;5087390;28;20720;-73
2023/12/21 05:41:27;;;;;;;0.30;0.20;;;5.60;99.90;;;;;;5086143;28;20209;-74
2023/12/21 05:43:55;;;;;;;0.30;0.25;;;5.70;99.90;;;;;;5087709;28;20207;-73
2023/12/21 05:46:22;;;;;;;0.30;0.20;;;5.80;99.90;;;;;;5086485;28;20302;-72
2023/12/21 05:48:48;;;;;;;0.38;0.35;;;5.70;99.90;;;;;;5084534;28;20639;-72
2023/12/21 05:51:17;;;;;;;0.30;0.20;;;5.70;99.90;;;;;;5086424;28;20256;-72
2023/12/21 05:53:43;;;;;;;0.30;0.20;;;5.70;99.90;;;;;;5090608;28;20237;-72
2023/12/21 05:56:10;;;;;;;0.30;0.20;;;5.80;99.90;;;;;;5086583;28;20198;-72
2023/12/21 05:58:37;;;;;;;0.60;0.38;;;5.70;99.90;;;;;;5086419;28;20207;-72
2023/12/21 06:01:04;;;;;;;0.30;0.20;;;5.70;99.90;;;;;;5086091;28;20214;-73
2023/12/21 06:03:31;;;;;;;0.30;0.20;;;5.70;99.90;;;;;;5087188;28;20211;-72
2023/12/21 06:05:57;;;;;;;0.30;0.20;;;5.70;99.90;;;;;;5086589;28;20235;-72
2023/12/21 06:08:26;;;;;;;0.30;0.20;;;5.60;99.90;;;;;;5086811;28;20789;-70
2023/12/21 06:10:53;;;;;;;0.30;0.22;;;5.80;99.90;;;;;;5086320;28;20214;-71
2023/12/21 06:13:20;;;;;;;0.50;0.30;;;5.70;99.90;;;;;;5086236;28;20206;-71
2023/12/21 06:15:47;;;;;;;0.55;0.55;;;5.80;99.90;;;;;;5086798;28;20535;-72
2023/12/21 06:18:13;;;;;;;0.52;0.20;;;5.80;99.90;;;;;;5086245;28;20206;-72
2023/12/21 06:20:40;;;;;;;0.30;0.20;;;5.80;99.90;;;;;;5086084;28;20307;-71
2023/12/21 06:23:07;;;;;;;0.60;0.40;;;5.70;99.90;;;;;;5086475;28;20209;-71
2023/12/21 06:25:35;;;;;;;0.30;0.20;;;5.70;99.90;;;;;;5086606;28;20229;-71
2023/12/21 06:28:02;;;;;;;0.85;0.40;;;5.70;99.90;;;;;;5085986;28;20206;-71
2023/12/21 06:30:29;;;;;;;0.30;0.20;;;5.80;99.90;;;;;;5084605;28;20293;-71
2023/12/21 06:32:56;;;;;;;0.47;0.32;;;5.80;99.90;;;;;;5083614;28;20203;-71
2023/12/21 06:35:23;;;;;;;0.60;0.50;;;5.70;99.90;;;;;;5080137;28;20214;-71
2023/12/21 06:37:49;;;;;;;0.50;0.38;;;5.70;99.90;;;;;;5086615;28;20199;-71
2023/12/21 06:40:16;;;;;;;28.10;1.33;;;5.80;99.90;;;;;;5085262;28;20199;-71
2023/12/21 06:42:44;;;;;;;0.65;0.60;;;5.90;99.90;;;;;;5085743;28;20214;-72
2023/12/21 06:45:12;;;;;;;0.65;0.38;;;5.80;99.90;;;;;;5085571;28;20313;-72
2023/12/21 06:47:38;;;;;;;0.40;0.20;;;5.80;99.90;;;;;;5086023;28;20218;-71
2023/12/21 06:50:07;;;;;;;0.30;0.30;;;5.80;99.90;;;;;;5085217;28;20683;-71
2023/12/21 06:52:33;;;;;;;0.30;0.20;;;5.80;99.90;;;;;;5085737;28;20282;-71
2023/12/21 06:55:00;;;;;;;0.40;0.30;;;5.80;99.90;;;;;;5089254;28;20202;-72
2023/12/21 06:57:28;;;;;;;0.70;0.70;;;5.80;99.90;;;;;;5085321;28;20215;-72
2023/12/21 06:59:56;;;;;;;0.47;0.40;;;5.80;99.90;;;;;;5085100;28;20227;-71
2023/12/21 07:02:23;;;;;;;0.40;0.30;;;5.90;99.90;;;;;;5085031;28;20234;-71
2023/12/21 07:04:50;;;;;;;0.30;0.20;;;5.90;99.90;;;;;;5085584;28;20637;-71
2023/12/21 07:07:16;;;;;;;0.30;0.30;;;5.90;99.90;;;;;;5084777;28;20222;-72
2023/12/21 07:09:43;;;;;;;0.40;0.30;;;5.90;99.90;;;;;;5084985;28;20298;-71
2023/12/21 07:12:10;;;;;;;0.30;0.20;;;6.00;99.90;;;;;;5085684;28;20198;-72
2023/12/21 07:14:39;;;;;;;0.30;0.20;;;6.00;99.90;;;;;;5085910;28;20206;-72
2023/12/21 07:17:07;;;;;;;0.50;0.30;;;6.00;99.90;;;;;;5085850;28;20203;-72
2023/12/21 07:19:37;;;;;;;0.30;0.30;;;6.00;99.90;;;;;;5084851;28;20233;-72
2023/12/21 07:22:04;;;;;;;0.45;0.30;;;6.00;99.90;;;;;;5084840;28;20212;-72
2023/12/21 07:24:31;;;;;;;0.30;0.20;;;6.10;99.90;;;;;;5085718;28;20663;-72
2023/12/21 07:26:58;;;;;;;0.30;0.25;;;6.20;99.90;;;;;;5085336;28;21297;-72
2023/12/21 07:29:24;;;;;;;0.30;0.22;;;6.20;99.90;;;;;;5085118;28;20202;-73
2023/12/21 07:31:51;;;;;;;0.30;0.20;;;6.30;99.90;;;;;;5085012;28;20209;-73
2023/12/21 07:34:19;;;;;;;0.40;0.30;;;6.20;99.90;;;;;;5085442;28;20202;-73
2023/12/21 07:36:46;;;;;;;0.50;0.40;;;6.10;99.90;;;;;;5078428;28;20559;-73
2023/12/21 07:39:13;;;;;;;0.40;0.40;;;6.20;99.90;;;;;;5083221;28;20643;-73
2023/12/21 07:41:40;;;;;;;0.30;0.20;;;6.20;99.90;;;;;;5080301;28;20213;-73
2023/12/21 07:44:06;;;;;;;0.40;0.30;;;6.20;99.90;;;;;;5088631;28;20210;-73
2023/12/21 07:46:33;;;;;;;0.40;0.30;;;6.20;99.90;;;;;;5088586;28;20218;-73
2023/12/21 07:49:00;;;;;;;0.40;0.30;;;6.20;99.90;;;;;;5088698;28;20202;-73
2023/12/21 07:51:28;;;;;;;0.40;0.30;;;6.30;99.90;;;;;;5087565;28;20207;-73
2023/12/21 07:53:55;;;;;;;0.40;0.35;;;6.30;99.90;;;;;;5092583;28;20603;-73
2023/12/21 07:56:22;;;;;;;0.50;0.40;;;6.30;99.90;;;;;;5087057;28;20737;-74
2023/12/21 07:58:48;;;;;;;0.30;0.30;;;6.30;99.90;;;;;;5088765;28;20209;-73
2023/12/21 08:01:15;;;;;;;0.45;0.30;;;6.20;99.90;;;;;;5087849;28;20209;-73
2023/12/21 08:03:43;;;;;;;0.30;0.20;;;6.20;99.90;;;;;;5087379;28;20207;-73
2023/12/21 08:06:19;;;;;;;0.30;0.30;;;6.30;99.90;;;;;;5088208;28;20218;-73
2023/12/21 08:08:47;;;;;;;0.77;0.52;;;6.30;99.90;;;;;;5088860;28;20208;-73
2023/12/21 08:11:15;;;;;;;0.30;0.20;;;6.40;99.90;;;;;;5087455;28;20217;-73
2023/12/21 08:13:41;;;;;;;0.40;0.30;;;6.40;99.90;;;;;;5088803;28;20555;-73
2023/12/21 08:16:08;;;;;;;0.50;0.40;;;6.40;99.90;;;;;;5092922;28;20207;-73
2023/12/21 08:18:35;;;;;;;0.30;0.20;;;6.30;99.90;;;;;;5092614;28;20213;-75
2023/12/21 08:21:02;;;;;;;0.30;0.20;;;6.30;99.90;;;;;;5087684;28;20202;-75
2023/12/21 08:23:28;;;;;;;0.40;0.22;;;6.40;99.90;;;;;;5088299;28;20683;-75
2023/12/21 08:25:57;;;;;;;0.60;0.30;;;6.40;99.90;;;;;;5087268;28;20456;-75
2023/12/21 08:28:25;;;;;;;0.60;0.32;;;6.50;99.90;;;;;;5088398;28;20203;-76
2023/12/21 08:30:53;;;;;;;0.45;0.45;;;6.50;99.90;;;;;;5087261;28;20256;-73
2023/12/21 08:33:20;;;;;;;0.40;0.20;;;6.50;99.90;;;;;;5088366;28;20236;-74
2023/12/21 08:35:47;;;;;;;0.30;0.22;;;6.50;99.90;;;;;;5088467;28;20205;-73
2023/12/21 08:38:13;;;;;;;0.30;0.20;;;6.50;99.90;;;;;;5088147;28;20599;-73
2023/12/21 08:40:40;;;;;;;0.43;0.40;;;6.50;99.90;;;;;;5087630;28;20214;-73
2023/12/21 08:43:08;;;;;;;0.40;0.30;;;6.50;99.90;;;;;;5087976;28;20205;-73
2023/12/21 08:45:35;;;;;;;0.63;0.63;;;6.50;99.90;;;;;;5087467;28;20209;-75
2023/12/21 08:48:02;;;;;;;0.40;0.20;;;6.50;99.90;;;;;;5088028;28;20222;-74
2023/12/21 08:50:29;;;;;;;2.60;0.30;;;6.50;99.90;;;;;;5087467;28;20234;-74
2023/12/21 08:52:56;;;;;;;0.30;0.20;;;6.50;99.90;;;;;;5087146;28;20252;-74
2023/12/21 08:55:22;;;;;;;0.30;0.20;;;6.50;99.90;;;;;;5090932;28;20236;-75
2023/12/21 08:57:49;;;;;;;0.45;0.30;;;6.50;99.90;;;;;;5087595;28;20209;-75
2023/12/21 09:00:18;;;;;;;0.40;0.30;;;6.50;99.90;;;;;;5086852;28;20198;-75
2023/12/21 09:02:45;;;;;;;0.30;0.30;;;6.50;99.90;;;;;;5088131;28;20210;-74
2023/12/21 09:05:13;;;;;;;0.75;0.40;;;6.60;99.90;;;;;;5087847;28;20209;-75
2023/12/21 09:07:40;;;;;;;0.30;0.22;;;6.70;99.90;;;;;;5087632;28;20222;-74
2023/12/21 09:10:08;;;;;;;0.40;0.30;;;6.60;99.90;;;;;;5086768;28;20651;-74
2023/12/21 09:12:35;;;;;;;0.30;0.20;;;6.60;99.90;;;;;;5087226;28;20956;-74
2023/12/21 09:15:03;;;;;;;0.70;0.55;;;6.60;99.90;;;;;;5087604;28;20207;-74
2023/12/21 09:17:31;;;;;;;0.40;0.20;;;6.70;99.90;;;;;;5081314;28;20285;-74
2023/12/21 09:19:58;;;;;;;0.30;0.20;;;6.70;99.90;;;;;;5087055;28;20209;-74
2023/12/21 09:22:25;;;;;;;0.50;0.30;;;6.50;99.90;;;;;;5087348;28;20217;-74
2023/12/21 09:24:52;;;;;;;0.30;0.20;;;6.60;99.90;;;;;;5087383;28;20202;-74
2023/12/21 09:27:18;;;;;;;0.40;0.20;;;6.70;99.90;;;;;;5086814;28;20233;-74
2023/12/21 09:29:45;;;;;;;0.30;0.30;;;6.60;99.90;;;;;;5086136;28;20218;-74
2023/12/21 09:32:12;;;;;;;0.30;0.22;;;6.60;99.90;;;;;;5087303;28;20202;-75
2023/12/21 09:34:40;;;;;;;0.40;0.30;;;6.70;99.90;;;;;;5087208;28;20285;-74
2023/12/21 09:37:08;;;;;;;0.50;0.35;;;6.70;99.90;;;;;;5087047;28;20202;-74
2023/12/21 09:39:34;;;;;;;0.30;0.20;;;6.80;99.90;;;;;;5086294;28;20209;-73
2023/12/21 09:42:01;;;;;;;0.30;0.20;;;6.70;99.90;;;;;;5087277;28;20210;-74
2023/12/21 09:44:29;;;;;;;0.50;0.40;;;6.80;99.90;;;;;;5087078;28;20302;-74
2023/12/21 09:46:57;;;;;;;0.47;0.43;;;6.80;99.90;;;;;;5086993;28;20233;-74
2023/12/21 09:49:24;;;;;;;0.77;0.35;;;6.90;99.90;;;;;;5086961;28;20285;-74
2023/12/21 09:51:53;;;;;;;0.85;0.40;;;6.90;99.90;;;;;;5086810;28;20231;-75
2023/12/21 09:54:21;;;;;;;0.30;0.20;;;6.90;99.90;;;;;;5086372;28;20199;-75
2023/12/21 09:56:51;;;;;;;1.23;0.33;;;7.00;99.90;;;;;;5086851;28;20558;-74
2023/12/21 09:59:18;;;;;;;0.30;0.20;;;7.00;99.90;;;;;;5086554;28;20620;-76
2023/12/21 10:01:44;;;;;;;0.30;0.20;;;7.00;99.90;;;;;;5086183;28;20638;-74
2023/12/21 10:04:11;;;;;;;0.30;0.28;;;7.00;99.90;;;;;;5087244;28;20210;-74
2023/12/21 10:06:38;;;;;;;0.60;0.40;;;7.10;99.90;;;;;;5086334;28;20229;-75
2023/12/21 10:09:08;;;;;;;0.30;0.30;;;7.10;99.90;;;;;;5086343;28;20208;-75
2023/12/21 10:11:36;;;;;;;0.50;0.50;;;7.10;99.90;;;;;;5085886;28;20636;-73
2023/12/21 10:14:04;;;;;;;0.30;0.20;;;7.10;99.90;;;;;;5086798;28;20622;-73
2023/12/21 10:16:30;;;;;;;0.30;0.20;;;7.10;99.90;;;;;;5080544;28;21055;-73
2023/12/21 10:18:57;;;;;;;0.30;0.20;;;7.10;99.90;;;;;;5086543;28;20995;-73
2023/12/21 10:21:24;;;;;;;0.35;0.20;;;7.10;99.90;;;;;;5085396;28;20209;-73
2023/12/21 10:23:52;;;;;;;1.70;0.20;;;7.00;99.90;;;;;;5086637;28;20297;-72
2023/12/21 10:26:20;;;;;;;0.40;0.30;;;7.10;99.90;;;;;;5086203;28;20635;-73
2023/12/21 10:28:48;;;;;;;2.67;0.30;;;7.20;99.90;;;;;;5086533;28;20620;-72
2023/12/21 10:31:16;;;;;;;0.30;0.20;;;7.20;99.90;;;;;;5085503;28;20202;-74
2023/12/21 10:33:43;;;;;;;0.40;0.20;;;7.30;99.90;;;;;;5086475;28;20633;-74
2023/12/21 10:36:09;;;;;;;0.57;0.53;;;7.20;99.90;;;;;;5086376;28;20631;-72
2023/12/21 10:38:37;;;;;;;0.30;0.20;;;7.30;99.90;;;;;;5086168;28;21168;-71
2023/12/21 10:41:05;;;;;;;0.30;0.20;;;7.30;99.90;;;;;;5085657;28;20955;-71
2023/12/21 10:43:35;;;;;;;0.30;0.20;;;7.30;99.90;;;;;;5085085;28;20625;-70
2023/12/21 10:46:03;;;;;;;0.30;0.20;;;7.20;99.90;;;;;;5086175;28;20824;-73
2023/12/21 10:48:33;;;;;;;0.30;0.20;;;7.30;99.90;;;;;;5085720;28;20664;-74
2023/12/21 10:51:02;;;;;;;0.30;0.20;;;7.40;99.90;;;;;;5085947;28;20616;-74
2023/12/21 10:53:30;;;;;;;0.40;0.30;;;7.40;99.90;;;;;;5086217;28;20636;-73
2023/12/21 10:55:58;;;;;;;0.40;0.30;;;7.30;99.90;;;;;;5086557;28;21027;-73
2023/12/21 10:58:27;;;;;;;1.47;0.80;;;7.40;99.90;;;;;;5085826;28;20628;-73
2023/12/21 11:00:56;;;;;;;0.30;0.20;;;7.40;99.90;;;;;;5084940;28;20976;-73
2023/12/21 11:03:25;;;;;;;0.30;0.20;;;7.40;99.90;;;;;;5086041;28;20636;-72
2023/12/21 11:05:52;;;;;;;0.37;0.20;;;7.50;99.90;;;;;;5086310;28;20982;-73
2023/12/21 11:08:20;;;;;;;0.30;0.27;;;7.50;99.90;;;;;;5084092;28;20670;-72
2023/12/21 11:10:49;;;;;;;2.00;0.40;;;7.50;99.90;;;;;;5085827;28;21093;-73
2023/12/21 11:13:15;;;;;;;0.50;0.20;;;7.40;99.90;;;;;;5085685;28;20628;-74
2023/12/21 11:15:43;;;;;;;0.40;0.30;;;7.40;99.90;;;;;;5086014;28;20631;-72
2023/12/21 11:18:15;;;;;;;0.40;0.30;;;7.40;99.90;;;;;;5089174;28;20630;-74
2023/12/21 11:20:46;;;;;;;0.30;0.20;;;7.40;99.90;;;;;;5089292;28;20620;-72
2023/12/21 11:23:13;;;;;;;0.60;0.30;;;7.30;99.90;;;;;;5089403;28;20632;-72
2023/12/21 11:25:40;;;;;;;0.40;0.30;;;7.40;99.90;;;;;;5089774;28;20630;-73
2023/12/21 11:28:08;;;;;;;0.40;0.30;;;7.40;99.90;;;;;;5089379;28;21105;-73
2023/12/21 11:30:35;;;;;;;0.37;0.27;;;7.40;99.90;;;;;;5089316;28;20639;-73
2023/12/21 11:33:06;;;;;;;0.30;0.20;;;7.50;99.90;;;;;;5089550;28;20736;-73
2023/12/21 11:35:35;;;;;;;0.40;0.30;;;7.50;99.90;;;;;;5089674;28;20621;-73
2023/12/21 11:38:05;;;;;;;0.40;0.30;;;7.50;99.90;;;;;;5089598;28;20743;-73
2023/12/21 11:40:33;;;;;;;0.30;0.20;;;7.50;99.90;;;;;;5087712;28;20654;-73
2023/12/21 11:43:01;;;;;;;0.40;0.30;;;7.50;99.90;;;;;;5089597;28;20626;-73
2023/12/21 11:45:30;;;;;;;0.40;0.30;;;7.50;99.90;;;;;;5089526;28;20628;-73
2023/12/21 11:48:00;;;;;;;0.60;0.50;;;7.40;99.90;;;;;;5087944;28;20721;-72
2023/12/21 11:50:30;;;;;;;0.50;0.30;;;7.60;99.90;;;;;;5086686;28;20749;-73
2023/12/21 11:53:07;;;;;;;0.30;0.30;;;7.60;99.90;;;;;;5088617;28;20202;-73
2023/12/21 11:55:37;;;;;;;0.40;0.20;;;7.60;99.90;;;;;;5085868;28;20619;-72
2023/12/21 11:58:15;;;;;;;0.30;0.20;;;7.50;99.90;;;;;;5089976;28;20612;-72
2023/12/21 12:00:44;;;;;;;0.30;0.20;;;7.60;99.90;;;;;;5088603;28;20686;-71
2023/12/21 12:03:12;;;;;;;0.40;0.30;;;7.50;99.90;;;;;;5088683;28;20636;-70
2023/12/21 12:05:39;;;;;;;0.30;0.30;;;7.50;99.90;;;;;;5087952;28;20630;-72
2023/12/21 12:08:07;;;;;;;0.40;0.30;;;7.60;99.90;;;;;;5085631;28;20728;-73
2023/12/21 12:10:34;;;;;;;0.37;0.23;;;7.60;99.90;;;;;;5083228;28;21075;-73
2023/12/21 12:13:03;;;;;;;1.27;0.50;;;7.60;99.90;;;;;;5088876;28;20628;-72
2023/12/21 12:15:29;;;;;;;0.40;0.30;;;7.60;99.90;;;;;;5088261;28;20632;-72
2023/12/21 12:17:56;;;;;;;0.30;0.20;;;7.60;99.90;;;;;;5088304;28;20721;-71
2023/12/21 12:20:23;;;;;;;0.40;0.27;;;7.70;99.90;;;;;;5087317;28;20628;-72
2023/12/21 12:22:52;;;;;;;0.30;0.27;;;7.70;99.90;;;;;;5088424;28;20739;-73
2023/12/21 12:25:20;;;;;;;0.40;0.30;;;7.70;99.90;;;;;;5088450;28;20971;-72
2023/12/21 12:27:48;;;;;;;0.40;0.20;;;7.80;99.90;;;;;;5087491;28;20644;-71
2023/12/21 12:30:17;;;;;;;0.50;0.37;;;7.70;99.90;;;;;;5087360;28;20628;-72
2023/12/21 12:32:45;;;;;;;0.50;0.47;;;7.80;99.90;;;;;;5088280;28;20743;-74
2023/12/21 12:35:12;;;;;;;0.40;0.23;;;7.80;99.90;;;;;;5087775;28;20627;-74
2023/12/21 12:37:39;;;;;;;0.50;0.30;;;7.80;99.90;;;;;;5088386;28;20956;-73
2023/12/21 12:40:09;;;;;;;0.40;0.20;;;7.80;99.90;;;;;;5086915;28;20613;-72
2023/12/21 12:42:38;;;;;;;0.30;0.20;;;7.80;99.90;;;;;;5089968;28;20719;-72
2023/12/21 12:45:06;;;;;;;0.57;0.20;;;7.80;99.90;;;;;;5087541;28;20628;-73
2023/12/21 12:47:33;;;;;;;0.40;0.30;;;7.80;99.90;;;;;;5085353;28;20660;-72
2023/12/21 12:50:00;;;;;;;0.40;0.20;;;7.70;99.90;;;;;;5086674;28;20631;-71
2023/12/21 12:52:27;;;;;;;0.40;0.30;;;7.70;99.90;;;;;;5087330;28;20662;-71
2023/12/21 12:54:54;;;;;;;0.30;0.30;;;7.70;99.90;;;;;;5083653;28;20621;-71
2023/12/21 12:57:25;;;;;;;0.40;0.30;;;7.70;99.90;;;;;;5087639;28;20628;-72
2023/12/21 12:59:57;;;;;;;0.40;0.30;;;7.80;99.90;;;;;;5086692;28;20647;-73